UAL70 KEWR-EHAM
Flight info
| Callsign | UAL70 |
|---|---|
| Flight time | N/A |
| Altitude | 39000 |
| Route | MERIT DCT HFD DCT PUT DCT BOS DCT BRADD N349B JOOPY/M084F390 DCT 49N050W 51N040W 53N030W 53N020W DCT MALOT DCT GISTI/N0474F390 DCT BOFUM Q37 MALUD UL975 WAL M16 DOLAS L603 LAMSO |
| Aircraft | B772/H-SDE2E3FGHIJ5LORVWXY/LB1D1 |
Departure
| Time | 2026-04-23 06:51 |
|---|---|
| Airport | Newark Liberty International Airport (KEWR) |
Arrival
| Time | N/A |
|---|---|
| Airport | Amsterdam Airport Schiphol (EHAM) |
| Time | Latitude | Longitude | Altitude | Speed | Heading |
|---|---|---|---|---|---|
| 2026-04-23 06:38 | 40.69685 | -74.17681 | 26 ft | 0 kts | 165° |
| 2026-04-23 06:39 | 40.69707 | -74.17689 | 26 ft | 4 kts | 166° |
| 2026-04-23 06:39 | 40.69733 | -74.17697 | 25 ft | 4 kts | 167° |
| 2026-04-23 06:40 | 40.69760 | -74.17705 | 24 ft | 4 kts | 167° |
| 2026-04-23 06:40 | 40.69786 | -74.17713 | 25 ft | 4 kts | 167° |
| 2026-04-23 06:40 | 40.69798 | -74.17716 | 26 ft | 3 kts | 167° |
| 2026-04-23 06:40 | 40.69795 | -74.17710 | 26 ft | 4 kts | 108° |
| 2026-04-23 06:41 | 40.69800 | -74.17694 | 26 ft | 4 kts | 60° |
| 2026-04-23 06:41 | 40.69817 | -74.17685 | 26 ft | 4 kts | 25° |
| 2026-04-23 06:41 | 40.69839 | -74.17666 | 26 ft | 4 kts | 37° |
| 2026-04-23 06:41 | 40.69846 | -74.17658 | 26 ft | 0 kts | 40° |
| 2026-04-23 06:43 | 40.69848 | -74.17657 | 26 ft | 3 kts | 40° |
| 2026-04-23 06:43 | 40.69894 | -74.17594 | 26 ft | 12 kts | 58° |
| 2026-04-23 06:43 | 40.69940 | -74.17506 | 26 ft | 12 kts | 46° |
| 2026-04-23 06:44 | 40.69997 | -74.17429 | 26 ft | 12 kts | 46° |
| 2026-04-23 06:44 | 40.70039 | -74.17340 | 26 ft | 12 kts | 82° |
| 2026-04-23 06:44 | 40.70034 | -74.17233 | 26 ft | 12 kts | 95° |
| 2026-04-23 06:44 | 40.70027 | -74.17127 | 26 ft | 12 kts | 95° |
| 2026-04-23 06:45 | 40.70020 | -74.17021 | 26 ft | 12 kts | 96° |
| 2026-04-23 06:45 | 40.70012 | -74.16915 | 26 ft | 12 kts | 96° |
| 2026-04-23 06:45 | 40.70009 | -74.16869 | 26 ft | 0 kts | 94° |
| 2026-04-23 06:46 | 40.70009 | -74.16868 | 26 ft | 1 kts | 94° |
| 2026-04-23 06:47 | 40.70007 | -74.16839 | 26 ft | 5 kts | 95° |
| 2026-04-23 06:47 | 40.70003 | -74.16774 | 26 ft | 9 kts | 95° |
| 2026-04-23 06:47 | 40.69996 | -74.16682 | 29 ft | 10 kts | 96° |
| 2026-04-23 06:47 | 40.69992 | -74.16586 | 26 ft | 10 kts | 83° |
| 2026-04-23 06:48 | 40.70039 | -74.16518 | 30 ft | 10 kts | 29° |
| 2026-04-23 06:48 | 40.70106 | -74.16481 | 30 ft | 10 kts | 13° |
| 2026-04-23 06:48 | 40.70177 | -74.16471 | 30 ft | 10 kts | 6° |
| 2026-04-23 06:48 | 40.70249 | -74.16457 | 32 ft | 10 kts | 14° |
| 2026-04-23 06:49 | 40.70279 | -74.16380 | 28 ft | 10 kts | 94° |
| 2026-04-23 06:49 | 40.70273 | -74.16284 | 30 ft | 10 kts | 96° |
| 2026-04-23 06:49 | 40.70266 | -74.16188 | 29 ft | 10 kts | 95° |
| 2026-04-23 06:49 | 40.70259 | -74.16093 | 26 ft | 10 kts | 96° |
| 2026-04-23 06:50 | 40.70254 | -74.15997 | 26 ft | 10 kts | 93° |
| 2026-04-23 06:50 | 40.70246 | -74.15902 | 26 ft | 10 kts | 115° |
| 2026-04-23 06:50 | 40.70181 | -74.15886 | 28 ft | 10 kts | 199° |
| 2026-04-23 06:50 | 40.70153 | -74.15903 | 28 ft | 12 kts | 204° |
| 2026-04-23 06:51 | 40.69852 | -74.16091 | 30 ft | 86 kts | 206° |
| 2026-04-23 06:51 | 40.69101 | -74.16568 | 28 ft | 153 kts | 205° |
| 2026-04-23 06:51 | 40.68007 | -74.17251 | 407 ft | 176 kts | 205° |
| 2026-04-23 06:51 | 40.66853 | -74.17725 | 1354 ft | 181 kts | 186° |
| 2026-04-23 06:52 | 40.65526 | -74.17428 | 1632 ft | 208 kts | 167° |
| 2026-04-23 06:52 | 40.64041 | -74.17086 | 1824 ft | 228 kts | 189° |
| 2026-04-23 06:52 | 40.62532 | -74.17835 | 2134 ft | 242 kts | 223° |
| 2026-04-23 06:52 | 40.61538 | -74.19596 | 2814 ft | 243 kts | 254° |
| 2026-04-23 06:53 | 40.61374 | -74.21797 | 3559 ft | 245 kts | 283° |
| 2026-04-23 06:53 | 40.62091 | -74.23811 | 4392 ft | 247 kts | 312° |
| 2026-04-23 06:53 | 40.63501 | -74.25101 | 5228 ft | 253 kts | 339° |
| 2026-04-23 06:53 | 40.65263 | -74.25347 | 6061 ft | 260 kts | 2° |
| 2026-04-23 06:54 | 40.67086 | -74.24961 | 6802 ft | 269 kts | 7° |
| 2026-04-23 06:54 | 40.68915 | -74.24429 | 7690 ft | 269 kts | 8° |
| 2026-04-23 06:54 | 40.70740 | -74.23863 | 8581 ft | 270 kts | 8° |
| 2026-04-23 06:54 | 40.72531 | -74.23094 | 9338 ft | 279 kts | 24° |
| 2026-04-23 06:55 | 40.73996 | -74.21318 | 10021 ft | 292 kts | 45° |
| 2026-04-23 06:55 | 40.75292 | -74.19158 | 10406 ft | 311 kts | 46° |
| 2026-04-23 06:55 | 40.76672 | -74.16835 | 10534 ft | 330 kts | 46° |
| 2026-04-23 06:55 | 40.78119 | -74.14405 | 10721 ft | 343 kts | 46° |
| 2026-04-23 06:56 | 40.79617 | -74.11901 | 11035 ft | 351 kts | 46° |
| 2026-04-23 06:56 | 40.81142 | -74.09366 | 11444 ft | 355 kts | 46° |
| 2026-04-23 06:56 | 40.82664 | -74.06841 | 11945 ft | 356 kts | 46° |
| 2026-04-23 06:56 | 40.84231 | -74.04248 | 12455 ft | 358 kts | 45° |
| 2026-04-23 06:57 | 40.85769 | -74.01705 | 12928 ft | 360 kts | 45° |
| 2026-04-23 06:57 | 40.87335 | -73.99119 | 13400 ft | 362 kts | 45° |
| 2026-04-23 06:57 | 40.88913 | -73.96509 | 13846 ft | 364 kts | 45° |
| 2026-04-23 06:57 | 40.90496 | -73.93888 | 14255 ft | 366 kts | 45° |
| 2026-04-23 06:58 | 40.92084 | -73.91254 | 14690 ft | 367 kts | 45° |
| 2026-04-23 06:58 | 40.93678 | -73.88608 | 15115 ft | 368 kts | 44° |
| 2026-04-23 06:58 | 40.95273 | -73.85957 | 15539 ft | 369 kts | 44° |
| 2026-04-23 06:58 | 40.96872 | -73.83299 | 15937 ft | 370 kts | 44° |
| 2026-04-23 06:59 | 40.98479 | -73.80626 | 16320 ft | 372 kts | 44° |
| 2026-04-23 06:59 | 41.00086 | -73.77947 | 16714 ft | 373 kts | 44° |
| 2026-04-23 06:59 | 41.01702 | -73.75251 | 17086 ft | 374 kts | 43° |
| 2026-04-23 06:59 | 41.03323 | -73.72546 | 17431 ft | 375 kts | 43° |
| 2026-04-23 07:00 | 41.04947 | -73.69832 | 17788 ft | 377 kts | 43° |
| 2026-04-23 07:00 | 41.06577 | -73.67104 | 18134 ft | 378 kts | 43° |
| 2026-04-23 07:00 | 41.07679 | -73.65260 | 18337 ft | 379 kts | 43° |
| 2026-04-23 07:00 | 41.09319 | -73.62512 | 18606 ft | 380 kts | 43° |
| 2026-04-23 07:01 | 41.10961 | -73.59760 | 18869 ft | 382 kts | 43° |
| 2026-04-23 07:01 | 41.12613 | -73.56986 | 19111 ft | 384 kts | 43° |
| 2026-04-23 07:01 | 41.14249 | -73.54239 | 19346 ft | 386 kts | 43° |
| 2026-04-23 07:01 | 41.15914 | -73.51438 | 19583 ft | 387 kts | 43° |
| 2026-04-23 07:02 | 41.17583 | -73.48628 | 19830 ft | 389 kts | 43° |
| 2026-04-23 07:02 | 41.19260 | -73.45803 | 20067 ft | 390 kts | 42° |
| 2026-04-23 07:02 | 41.20941 | -73.42968 | 20299 ft | 391 kts | 42° |
| 2026-04-23 07:02 | 41.22624 | -73.40126 | 20544 ft | 392 kts | 42° |
| 2026-04-23 07:03 | 41.24315 | -73.37270 | 20765 ft | 394 kts | 42° |
| 2026-04-23 07:03 | 41.26011 | -73.34401 | 20985 ft | 395 kts | 42° |
| 2026-04-23 07:03 | 41.27710 | -73.31526 | 21197 ft | 396 kts | 42° |
| 2026-04-23 07:03 | 41.29415 | -73.28637 | 21389 ft | 398 kts | 42° |
| 2026-04-23 07:04 | 41.31125 | -73.25735 | 21638 ft | 398 kts | 42° |
| 2026-04-23 07:04 | 41.32832 | -73.22836 | 21868 ft | 399 kts | 41° |
| 2026-04-23 07:04 | 41.34542 | -73.19930 | 22096 ft | 400 kts | 41° |
| 2026-04-23 07:04 | 41.36260 | -73.17008 | 22313 ft | 401 kts | 41° |
| 2026-04-23 07:05 | 41.37981 | -73.14060 | 22604 ft | 408 kts | 43° |
| 2026-04-23 07:05 | 41.39619 | -73.10942 | 23297 ft | 414 kts | 46° |
| 2026-04-23 07:05 | 41.41131 | -73.07657 | 23981 ft | 419 kts | 49° |
| 2026-04-23 07:05 | 41.42584 | -73.04269 | 24555 ft | 423 kts | 50° |
| 2026-04-23 07:06 | 41.44025 | -73.00833 | 25091 ft | 427 kts | 50° |
| 2026-04-23 07:06 | 41.45485 | -72.97371 | 25615 ft | 429 kts | 49° |
| 2026-04-23 07:06 | 41.46967 | -72.93905 | 26165 ft | 432 kts | 49° |
| 2026-04-23 07:06 | 41.48476 | -72.90427 | 26683 ft | 434 kts | 49° |
| 2026-04-23 07:07 | 41.50002 | -72.86942 | 27187 ft | 437 kts | 48° |
| 2026-04-23 07:07 | 41.51546 | -72.83432 | 27661 ft | 440 kts | 48° |
| 2026-04-23 07:07 | 41.53099 | -72.79904 | 28121 ft | 443 kts | 48° |
| 2026-04-23 07:07 | 41.54665 | -72.76341 | 28573 ft | 446 kts | 48° |
| 2026-04-23 07:08 | 41.56237 | -72.72754 | 29031 ft | 449 kts | 48° |
| 2026-04-23 07:08 | 41.57819 | -72.69135 | 29463 ft | 452 kts | 48° |
| 2026-04-23 07:08 | 41.59408 | -72.65491 | 29860 ft | 455 kts | 48° |
| 2026-04-23 07:08 | 41.61005 | -72.61825 | 30237 ft | 458 kts | 48° |
| 2026-04-23 07:09 | 41.62609 | -72.58139 | 30575 ft | 460 kts | 48° |
| 2026-04-23 07:09 | 41.64217 | -72.54442 | 30893 ft | 462 kts | 48° |
| 2026-04-23 07:09 | 41.65853 | -72.50740 | 31212 ft | 463 kts | 47° |
| 2026-04-23 07:09 | 41.67518 | -72.47043 | 31523 ft | 464 kts | 47° |
| 2026-04-23 07:10 | 41.69197 | -72.43345 | 31830 ft | 466 kts | 47° |
| 2026-04-23 07:10 | 41.70886 | -72.39625 | 32114 ft | 468 kts | 47° |
| 2026-04-23 07:10 | 41.72578 | -72.35891 | 32391 ft | 470 kts | 47° |
| 2026-04-23 07:10 | 41.74251 | -72.32182 | 32662 ft | 472 kts | 47° |
| 2026-04-23 07:11 | 41.75943 | -72.28412 | 32944 ft | 473 kts | 47° |
| 2026-04-23 07:11 | 41.77635 | -72.24629 | 33298 ft | 473 kts | 47° |
| 2026-04-23 07:11 | 41.79319 | -72.20850 | 33685 ft | 471 kts | 47° |
| 2026-04-23 07:12 | 41.82677 | -72.13313 | 34288 ft | 471 kts | 48° |
| 2026-04-23 07:12 | 41.84364 | -72.09532 | 34489 ft | 473 kts | 48° |
| 2026-04-23 07:12 | 41.86055 | -72.05737 | 34692 ft | 475 kts | 48° |
| 2026-04-23 07:12 | 41.87748 | -72.01931 | 34909 ft | 476 kts | 48° |
| 2026-04-23 07:13 | 41.89445 | -71.98105 | 35151 ft | 477 kts | 49° |
| 2026-04-23 07:13 | 41.91140 | -71.94276 | 35374 ft | 478 kts | 49° |
| 2026-04-23 07:13 | 41.92842 | -71.90427 | 35586 ft | 479 kts | 49° |
| 2026-04-23 07:13 | 41.94543 | -71.86577 | 35798 ft | 480 kts | 49° |
| 2026-04-23 07:14 | 41.96251 | -71.82727 | 36015 ft | 480 kts | 49° |
| 2026-04-23 07:14 | 41.98007 | -71.78928 | 36228 ft | 479 kts | 47° |
| 2026-04-23 07:14 | 41.99810 | -71.75157 | 36426 ft | 479 kts | 47° |
| 2026-04-23 07:14 | 42.01626 | -71.71408 | 36661 ft | 479 kts | 47° |
| 2026-04-23 07:15 | 42.03444 | -71.67657 | 36870 ft | 479 kts | 47° |
| 2026-04-23 07:15 | 42.05238 | -71.63933 | 37070 ft | 480 kts | 48° |
| 2026-04-23 07:15 | 42.07066 | -71.60108 | 37300 ft | 480 kts | 48° |
| 2026-04-23 07:15 | 42.08842 | -71.56366 | 37503 ft | 481 kts | 49° |
| 2026-04-23 07:16 | 42.10665 | -71.52509 | 37710 ft | 481 kts | 49° |
| 2026-04-23 07:16 | 42.12458 | -71.48703 | 37901 ft | 482 kts | 49° |
| 2026-04-23 07:16 | 42.14229 | -71.44940 | 38106 ft | 482 kts | 49° |
| 2026-04-23 07:16 | 42.16025 | -71.41121 | 38291 ft | 482 kts | 50° |
| 2026-04-23 07:17 | 42.17820 | -71.37302 | 38483 ft | 482 kts | 50° |
| 2026-04-23 07:17 | 42.19612 | -71.33484 | 38663 ft | 482 kts | 50° |
| 2026-04-23 07:17 | 42.21406 | -71.29660 | 38814 ft | 483 kts | 50° |
| 2026-04-23 07:17 | 42.23201 | -71.25828 | 38923 ft | 484 kts | 50° |
| 2026-04-23 07:18 | 42.25003 | -71.21978 | 38975 ft | 484 kts | 51° |
| 2026-04-23 07:18 | 42.28593 | -71.14284 | 39025 ft | 484 kts | 51° |
| 2026-04-23 07:19 | 42.32175 | -71.06594 | 39032 ft | 484 kts | 51° |
| 2026-04-23 07:19 | 42.35610 | -70.98736 | 39030 ft | 488 kts | 57° |
| 2026-04-23 07:20 | 42.37959 | -70.90123 | 39042 ft | 495 kts | 71° |
| 2026-04-23 07:20 | 42.39428 | -70.80961 | 39035 ft | 499 kts | 72° |
| 2026-04-23 07:21 | 42.41235 | -70.71899 | 39038 ft | 497 kts | 67° |
| 2026-04-23 07:21 | 42.43372 | -70.62976 | 39031 ft | 500 kts | 66° |
| 2026-04-23 07:22 | 42.45446 | -70.54017 | 39033 ft | 503 kts | 68° |
| 2026-04-23 07:22 | 42.47421 | -70.44918 | 39021 ft | 504 kts | 69° |
| 2026-04-23 07:23 | 42.49345 | -70.35788 | 39024 ft | 504 kts | 69° |
| 2026-04-23 07:23 | 42.51261 | -70.26659 | 39024 ft | 504 kts | 69° |
| 2026-04-23 07:24 | 42.53184 | -70.17525 | 39023 ft | 504 kts | 69° |
| 2026-04-23 07:24 | 42.55104 | -70.08391 | 39020 ft | 504 kts | 69° |
| 2026-04-23 07:25 | 42.57020 | -69.99241 | 39012 ft | 504 kts | 69° |
| 2026-04-23 07:25 | 42.58926 | -69.90094 | 39014 ft | 504 kts | 69° |
| 2026-04-23 07:26 | 42.60827 | -69.80921 | 39017 ft | 504 kts | 70° |
| 2026-04-23 07:26 | 42.62721 | -69.71742 | 39016 ft | 505 kts | 70° |
| 2026-04-23 07:27 | 42.64612 | -69.62539 | 39017 ft | 506 kts | 70° |
| 2026-04-23 07:27 | 42.66496 | -69.53331 | 39017 ft | 507 kts | 70° |
| 2026-04-23 07:28 | 42.68365 | -69.44152 | 39018 ft | 508 kts | 70° |
| 2026-04-23 07:28 | 42.70242 | -69.34890 | 39022 ft | 509 kts | 70° |
| 2026-04-23 07:29 | 42.72115 | -69.25605 | 39023 ft | 509 kts | 70° |
| 2026-04-23 07:29 | 42.73984 | -69.16299 | 39019 ft | 510 kts | 70° |
| 2026-04-23 07:30 | 42.75844 | -69.06994 | 39025 ft | 510 kts | 70° |
| 2026-04-23 07:30 | 42.77699 | -68.97671 | 39024 ft | 510 kts | 71° |
| 2026-04-23 07:31 | 42.79548 | -68.88332 | 39022 ft | 511 kts | 71° |
| 2026-04-23 07:31 | 42.81389 | -68.78990 | 39027 ft | 511 kts | 71° |
| 2026-04-23 07:32 | 42.83213 | -68.69696 | 39023 ft | 511 kts | 71° |
| 2026-04-23 07:32 | 42.85040 | -68.60335 | 39025 ft | 511 kts | 71° |
| 2026-04-23 07:33 | 42.86861 | -68.50968 | 39029 ft | 511 kts | 71° |
| 2026-04-23 07:33 | 42.88672 | -68.41599 | 39026 ft | 511 kts | 71° |
| 2026-04-23 07:34 | 42.90476 | -68.32226 | 39030 ft | 511 kts | 71° |
| 2026-04-23 07:34 | 42.92275 | -68.22833 | 39032 ft | 511 kts | 71° |
| 2026-04-23 07:35 | 42.94063 | -68.13454 | 39036 ft | 511 kts | 71° |
| 2026-04-23 07:35 | 42.95847 | -68.04049 | 39034 ft | 511 kts | 72° |
| 2026-04-23 07:36 | 42.97621 | -67.94647 | 39034 ft | 511 kts | 72° |
| 2026-04-23 07:36 | 42.99390 | -67.85231 | 39037 ft | 512 kts | 72° |
| 2026-04-23 07:37 | 43.01149 | -67.75817 | 39039 ft | 512 kts | 72° |
| 2026-04-23 07:37 | 43.02892 | -67.66449 | 39040 ft | 512 kts | 72° |
| 2026-04-23 07:38 | 43.04635 | -67.57026 | 39044 ft | 512 kts | 72° |
| 2026-04-23 07:38 | 43.06372 | -67.47594 | 39045 ft | 512 kts | 72° |
| 2026-04-23 07:39 | 43.08101 | -67.38154 | 39049 ft | 511 kts | 72° |
| 2026-04-23 07:39 | 43.09821 | -67.28718 | 39049 ft | 511 kts | 73° |
| 2026-04-23 07:40 | 43.11536 | -67.19255 | 39051 ft | 511 kts | 73° |
| 2026-04-23 07:40 | 43.13243 | -67.09799 | 39052 ft | 511 kts | 73° |
| 2026-04-23 07:41 | 43.15196 | -67.00466 | 39049 ft | 506 kts | 66° |
| 2026-04-23 07:41 | 43.18405 | -66.92068 | 39067 ft | 495 kts | 50° |
| 2026-04-23 07:42 | 43.22476 | -66.84485 | 39070 ft | 493 kts | 51° |
| 2026-04-23 07:42 | 43.26175 | -66.76572 | 39072 ft | 499 kts | 55° |
| 2026-04-23 07:43 | 43.29697 | -66.68333 | 39074 ft | 502 kts | 56° |
| 2026-04-23 07:43 | 43.33306 | -66.60096 | 39078 ft | 504 kts | 54° |
| 2026-04-23 07:44 | 43.37008 | -66.51910 | 39076 ft | 504 kts | 54° |
| 2026-04-23 07:44 | 43.40730 | -66.43760 | 39066 ft | 504 kts | 54° |
| 2026-04-23 07:45 | 43.44448 | -66.35590 | 39067 ft | 503 kts | 54° |
| 2026-04-23 07:45 | 43.48142 | -66.27421 | 39077 ft | 502 kts | 54° |
| 2026-04-23 07:46 | 43.51817 | -66.19259 | 39075 ft | 501 kts | 55° |
| 2026-04-23 07:46 | 43.54866 | -66.12468 | 39072 ft | 501 kts | 55° |
| 2026-04-23 07:47 | 43.58523 | -66.04306 | 39077 ft | 500 kts | 55° |
| 2026-04-23 07:47 | 43.62170 | -65.96144 | 39079 ft | 500 kts | 55° |
| 2026-04-23 07:48 | 43.65813 | -65.87969 | 39078 ft | 499 kts | 55° |
| 2026-04-23 07:48 | 43.69447 | -65.79792 | 39080 ft | 499 kts | 56° |
| 2026-04-23 07:49 | 43.73070 | -65.71614 | 39083 ft | 499 kts | 56° |
| 2026-04-23 07:49 | 43.76686 | -65.63432 | 39085 ft | 499 kts | 56° |
| 2026-04-23 07:50 | 43.80300 | -65.55228 | 39086 ft | 499 kts | 56° |
| 2026-04-23 07:50 | 43.83905 | -65.47023 | 39087 ft | 499 kts | 56° |
| 2026-04-23 07:51 | 43.87503 | -65.38810 | 39085 ft | 499 kts | 56° |
| 2026-04-23 07:51 | 43.91099 | -65.30578 | 39087 ft | 499 kts | 56° |
| 2026-04-23 07:52 | 43.94664 | -65.22396 | 39089 ft | 499 kts | 56° |
| 2026-04-23 07:52 | 43.98246 | -65.14149 | 39090 ft | 499 kts | 57° |
| 2026-04-23 07:53 | 44.01822 | -65.05892 | 39087 ft | 499 kts | 57° |
| 2026-04-23 07:53 | 44.05397 | -64.97615 | 39086 ft | 499 kts | 57° |
| 2026-04-23 07:54 | 44.08965 | -64.89330 | 39089 ft | 499 kts | 57° |
| 2026-04-23 07:54 | 44.12528 | -64.81033 | 39088 ft | 500 kts | 57° |
| 2026-04-23 07:55 | 44.16086 | -64.72723 | 39082 ft | 500 kts | 57° |
| 2026-04-23 07:55 | 44.19642 | -64.64394 | 39078 ft | 500 kts | 57° |
| 2026-04-23 07:56 | 44.23193 | -64.56052 | 39072 ft | 501 kts | 57° |
| 2026-04-23 07:56 | 44.26748 | -64.47675 | 39066 ft | 501 kts | 57° |
| 2026-04-23 07:57 | 44.30287 | -64.39313 | 39061 ft | 501 kts | 57° |
| 2026-04-23 07:57 | 44.33829 | -64.30919 | 39055 ft | 501 kts | 57° |
| 2026-04-23 07:58 | 44.37366 | -64.22512 | 39055 ft | 502 kts | 58° |
| 2026-04-23 07:58 | 44.40873 | -64.14152 | 39057 ft | 502 kts | 58° |
| 2026-04-23 07:59 | 44.44396 | -64.05728 | 39057 ft | 502 kts | 58° |
| 2026-04-23 07:59 | 44.47915 | -63.97292 | 39056 ft | 502 kts | 58° |
| 2026-04-23 08:00 | 44.51424 | -63.88851 | 39058 ft | 501 kts | 58° |
| 2026-04-23 08:00 | 44.54928 | -63.80397 | 39058 ft | 501 kts | 58° |
| 2026-04-23 08:01 | 44.58419 | -63.71952 | 39053 ft | 500 kts | 58° |
| 2026-04-23 08:01 | 44.61903 | -63.63497 | 39050 ft | 500 kts | 58° |
| 2026-04-23 08:02 | 44.65378 | -63.55039 | 39048 ft | 499 kts | 58° |